sensor_id;sensor_type;location;lat;lon;timestamp;P1;durP1;ratioP1;P2;durP2;ratioP2
75459;SDS011;64039;53.060;9.342;2023-06-22T00:01:52;3.78;;;3.20;;
75459;SDS011;64039;53.060;9.342;2023-06-22T00:04:17;4.10;;;3.50;;
75459;SDS011;64039;53.060;9.342;2023-06-22T00:06:43;4.22;;;3.22;;
75459;SDS011;64039;53.060;9.342;2023-06-22T00:09:08;4.57;;;3.47;;
75459;SDS011;64039;53.060;9.342;2023-06-22T00:11:35;4.25;;;3.20;;
75459;SDS011;64039;53.060;9.342;2023-06-22T00:14:04;5.95;;;3.60;;
75459;SDS011;64039;53.060;9.342;2023-06-22T00:16:30;5.72;;;3.78;;
75459;SDS011;64039;53.060;9.342;2023-06-22T00:18:56;5.60;;;3.45;;
75459;SDS011;64039;53.060;9.342;2023-06-22T00:21:25;4.85;;;3.30;;
75459;SDS011;64039;53.060;9.342;2023-06-22T00:23:54;6.65;;;3.40;;
75459;SDS011;64039;53.060;9.342;2023-06-22T00:26:20;4.53;;;3.20;;
75459;SDS011;64039;53.060;9.342;2023-06-22T00:28:46;4.50;;;3.17;;
75459;SDS011;64039;53.060;9.342;2023-06-22T00:31:12;4.15;;;3.33;;
75459;SDS011;64039;53.060;9.342;2023-06-22T00:33:38;4.82;;;3.58;;
75459;SDS011;64039;53.060;9.342;2023-06-22T00:36:04;4.40;;;3.55;;
75459;SDS011;64039;53.060;9.342;2023-06-22T00:38:30;4.47;;;3.60;;
75459;SDS011;64039;53.060;9.342;2023-06-22T00:40:55;4.50;;;3.20;;
75459;SDS011;64039;53.060;9.342;2023-06-22T00:43:20;4.47;;;3.13;;
75459;SDS011;64039;53.060;9.342;2023-06-22T00:45:46;4.78;;;3.55;;
75459;SDS011;64039;53.060;9.342;2023-06-22T00:48:12;5.20;;;3.45;;
75459;SDS011;64039;53.060;9.342;2023-06-22T00:50:39;6.25;;;3.50;;
75459;SDS011;64039;53.060;9.342;2023-06-22T00:53:06;4.65;;;3.70;;
75459;SDS011;64039;53.060;9.342;2023-06-22T00:58:04;4.60;;;3.60;;
75459;SDS011;64039;53.060;9.342;2023-06-22T01:00:33;5.57;;;3.60;;
75459;SDS011;64039;53.060;9.342;2023-06-22T01:02:59;4.15;;;3.50;;
75459;SDS011;64039;53.060;9.342;2023-06-22T01:05:24;4.85;;;3.60;;
75459;SDS011;64039;53.060;9.342;2023-06-22T01:13:18;4.43;;;3.50;;
75459;SDS011;64039;53.060;9.342;2023-06-22T01:16:07;3.88;;;3.40;;
75459;SDS011;64039;53.060;9.342;2023-06-22T01:18:33;3.53;;;2.85;;
75459;SDS011;64039;53.060;9.342;2023-06-22T01:21:02;9.77;;;3.33;;
75459;SDS011;64039;53.060;9.342;2023-06-22T01:26:06;5.15;;;3.28;;
75459;SDS011;64039;53.060;9.342;2023-06-22T01:31:18;5.25;;;3.53;;
75459;SDS011;64039;53.060;9.342;2023-06-22T01:33:46;4.32;;;3.45;;
75459;SDS011;64039;53.060;9.342;2023-06-22T01:36:17;5.63;;;3.65;;
75459;SDS011;64039;53.060;9.342;2023-06-22T01:38:42;4.65;;;3.15;;
75459;SDS011;64039;53.060;9.342;2023-06-22T01:41:09;5.70;;;3.72;;
75459;SDS011;64039;53.060;9.342;2023-06-22T01:43:35;4.07;;;3.35;;
75459;SDS011;64039;53.060;9.342;2023-06-22T01:46:02;7.65;;;3.60;;
75459;SDS011;64039;53.060;9.342;2023-06-22T01:48:29;4.45;;;3.17;;
75459;SDS011;64039;53.060;9.342;2023-06-22T01:50:56;4.70;;;3.13;;
75459;SDS011;64039;53.060;9.342;2023-06-22T01:53:22;4.15;;;3.20;;
75459;SDS011;64039;53.060;9.342;2023-06-22T01:55:48;7.03;;;4.32;;
75459;SDS011;64039;53.060;9.342;2023-06-22T01:58:14;8.43;;;4.40;;
75459;SDS011;64039;53.060;9.342;2023-06-22T02:00:41;5.75;;;3.95;;
75459;SDS011;64039;53.060;9.342;2023-06-22T02:03:17;5.38;;;4.15;;
75459;SDS011;64039;53.060;9.342;2023-06-22T02:05:50;7.20;;;4.22;;
75459;SDS011;64039;53.060;9.342;2023-06-22T02:08:25;5.47;;;4.03;;
75459;SDS011;64039;53.060;9.342;2023-06-22T02:11:13;7.15;;;4.40;;
75459;SDS011;64039;53.060;9.342;2023-06-22T02:13:41;6.28;;;4.47;;
75459;SDS011;64039;53.060;9.342;2023-06-22T02:16:09;7.70;;;4.43;;
75459;SDS011;64039;53.060;9.342;2023-06-22T02:18:36;8.18;;;4.63;;
75459;SDS011;64039;53.060;9.342;2023-06-22T02:21:02;7.03;;;4.93;;
75459;SDS011;64039;53.060;9.342;2023-06-22T02:23:28;6.82;;;5.32;;
75459;SDS011;64039;53.060;9.342;2023-06-22T02:25:53;8.00;;;4.75;;
75459;SDS011;64039;53.060;9.342;2023-06-22T02:28:19;5.50;;;4.38;;
75459;SDS011;64039;53.060;9.342;2023-06-22T02:30:44;7.05;;;4.28;;
75459;SDS011;64039;53.060;9.342;2023-06-22T02:33:10;8.80;;;4.57;;
75459;SDS011;64039;53.060;9.342;2023-06-22T02:35:35;7.20;;;4.50;;
75459;SDS011;64039;53.060;9.342;2023-06-22T02:38:01;7.35;;;4.10;;
75459;SDS011;64039;53.060;9.342;2023-06-22T02:40:28;6.20;;;4.20;;
75459;SDS011;64039;53.060;9.342;2023-06-22T02:42:56;5.45;;;4.07;;
75459;SDS011;64039;53.060;9.342;2023-06-22T02:45:23;5.65;;;4.35;;
75459;SDS011;64039;53.060;9.342;2023-06-22T02:47:49;5.50;;;4.03;;
75459;SDS011;64039;53.060;9.342;2023-06-22T02:50:14;4.88;;;3.70;;
75459;SDS011;64039;53.060;9.342;2023-06-22T02:52:40;5.68;;;3.75;;
75459;SDS011;64039;53.060;9.342;2023-06-22T02:55:05;7.07;;;4.68;;
75459;SDS011;64039;53.060;9.342;2023-06-22T02:57:32;5.30;;;4.03;;
75459;SDS011;64039;53.060;9.342;2023-06-22T02:59:59;5.03;;;3.83;;
75459;SDS011;64039;53.060;9.342;2023-06-22T03:02:24;4.55;;;3.72;;
75459;SDS011;64039;53.060;9.342;2023-06-22T03:04:51;6.47;;;4.18;;
75459;SDS011;64039;53.060;9.342;2023-06-22T03:07:18;5.88;;;3.90;;
75459;SDS011;64039;53.060;9.342;2023-06-22T03:09:44;6.10;;;4.28;;
75459;SDS011;64039;53.060;9.342;2023-06-22T03:12:10;5.80;;;4.40;;
75459;SDS011;64039;53.060;9.342;2023-06-22T03:14:36;5.88;;;4.07;;
75459;SDS011;64039;53.060;9.342;2023-06-22T03:17:01;6.85;;;4.63;;
75459;SDS011;64039;53.060;9.342;2023-06-22T03:19:28;6.82;;;4.05;;
75459;SDS011;64039;53.060;9.342;2023-06-22T03:21:56;6.45;;;4.57;;
75459;SDS011;64039;53.060;9.342;2023-06-22T03:24:22;8.93;;;5.03;;
75459;SDS011;64039;53.060;9.342;2023-06-22T03:26:48;8.52;;;4.20;;
75459;SDS011;64039;53.060;9.342;2023-06-22T03:29:13;8.52;;;4.38;;
75459;SDS011;64039;53.060;9.342;2023-06-22T03:31:39;7.10;;;5.13;;
75459;SDS011;64039;53.060;9.342;2023-06-22T03:34:04;6.38;;;4.72;;
75459;SDS011;64039;53.060;9.342;2023-06-22T03:36:30;5.95;;;4.25;;
75459;SDS011;64039;53.060;9.342;2023-06-22T03:38:55;7.03;;;4.88;;
75459;SDS011;64039;53.060;9.342;2023-06-22T03:41:21;8.27;;;4.80;;
75459;SDS011;64039;53.060;9.342;2023-06-22T03:43:46;7.60;;;5.05;;
75459;SDS011;64039;53.060;9.342;2023-06-22T03:46:12;6.00;;;4.18;;
75459;SDS011;64039;53.060;9.342;2023-06-22T03:48:38;7.93;;;4.38;;
75459;SDS011;64039;53.060;9.342;2023-06-22T03:51:03;7.18;;;4.40;;
75459;SDS011;64039;53.060;9.342;2023-06-22T03:53:29;8.57;;;4.80;;
75459;SDS011;64039;53.060;9.342;2023-06-22T03:55:55;5.43;;;4.22;;
75459;SDS011;64039;53.060;9.342;2023-06-22T03:58:21;8.68;;;4.40;;
75459;SDS011;64039;53.060;9.342;2023-06-22T04:00:47;6.80;;;4.40;;
75459;SDS011;64039;53.060;9.342;2023-06-22T04:03:14;7.20;;;4.95;;
75459;SDS011;64039;53.060;9.342;2023-06-22T04:05:40;6.40;;;4.72;;
75459;SDS011;64039;53.060;9.342;2023-06-22T04:08:06;6.38;;;4.68;;
75459;SDS011;64039;53.060;9.342;2023-06-22T04:10:31;8.35;;;4.60;;
75459;SDS011;64039;53.060;9.342;2023-06-22T04:12:57;5.82;;;4.20;;
75459;SDS011;64039;53.060;9.342;2023-06-22T04:15:22;6.95;;;5.30;;
75459;SDS011;64039;53.060;9.342;2023-06-22T04:17:48;6.57;;;5.32;;
75459;SDS011;64039;53.060;9.342;2023-06-22T04:20:13;9.13;;;6.03;;
75459;SDS011;64039;53.060;9.342;2023-06-22T04:22:39;8.57;;;7.10;;
75459;SDS011;64039;53.060;9.342;2023-06-22T04:25:05;14.55;;;9.85;;
75459;SDS011;64039;53.060;9.342;2023-06-22T04:27:32;16.98;;;12.40;;
75459;SDS011;64039;53.060;9.342;2023-06-22T04:30:02;10.13;;;8.07;;
75459;SDS011;64039;53.060;9.342;2023-06-22T04:32:28;9.50;;;7.15;;
75459;SDS011;64039;53.060;9.342;2023-06-22T04:34:54;7.88;;;6.20;;
75459;SDS011;64039;53.060;9.342;2023-06-22T04:37:19;7.97;;;6.10;;
75459;SDS011;64039;53.060;9.342;2023-06-22T04:39:48;6.95;;;5.30;;
75459;SDS011;64039;53.060;9.342;2023-06-22T04:42:15;6.70;;;4.80;;
75459;SDS011;64039;53.060;9.342;2023-06-22T04:44:40;7.78;;;5.72;;
75459;SDS011;64039;53.060;9.342;2023-06-22T04:47:07;7.60;;;5.65;;
75459;SDS011;64039;53.060;9.342;2023-06-22T04:49:33;11.23;;;7.85;;
75459;SDS011;64039;53.060;9.342;2023-06-22T04:52:03;10.25;;;7.78;;
75459;SDS011;64039;53.060;9.342;2023-06-22T04:54:30;10.75;;;8.40;;
75459;SDS011;64039;53.060;9.342;2023-06-22T04:56:58;11.02;;;7.35;;
75459;SDS011;64039;53.060;9.342;2023-06-22T04:59:26;10.55;;;7.22;;
75459;SDS011;64039;53.060;9.342;2023-06-22T05:01:59;13.68;;;9.93;;
75459;SDS011;64039;53.060;9.342;2023-06-22T05:04:26;10.43;;;6.88;;
75459;SDS011;64039;53.060;9.342;2023-06-22T05:06:53;14.45;;;9.68;;
75459;SDS011;64039;53.060;9.342;2023-06-22T05:09:20;10.70;;;7.15;;
75459;SDS011;64039;53.060;9.342;2023-06-22T05:11:46;10.38;;;7.75;;
75459;SDS011;64039;53.060;9.342;2023-06-22T05:14:11;8.18;;;6.45;;
75459;SDS011;64039;53.060;9.342;2023-06-22T05:16:37;10.13;;;7.25;;
75459;SDS011;64039;53.060;9.342;2023-06-22T05:19:03;10.40;;;6.70;;
75459;SDS011;64039;53.060;9.342;2023-06-22T05:21:29;12.13;;;8.18;;
75459;SDS011;64039;53.060;9.342;2023-06-22T05:23:56;8.52;;;6.93;;
75459;SDS011;64039;53.060;9.342;2023-06-22T05:26:25;9.32;;;6.90;;
75459;SDS011;64039;53.060;9.342;2023-06-22T05:28:52;9.02;;;6.60;;
75459;SDS011;64039;53.060;9.342;2023-06-22T05:31:18;10.10;;;7.38;;
75459;SDS011;64039;53.060;9.342;2023-06-22T05:33:47;9.20;;;6.90;;
75459;SDS011;64039;53.060;9.342;2023-06-22T05:36:13;11.23;;;6.68;;
75459;SDS011;64039;53.060;9.342;2023-06-22T05:38:39;9.05;;;6.53;;
75459;SDS011;64039;53.060;9.342;2023-06-22T05:41:05;7.55;;;6.30;;
75459;SDS011;64039;53.060;9.342;2023-06-22T05:43:31;8.23;;;6.20;;
75459;SDS011;64039;53.060;9.342;2023-06-22T05:45:56;8.80;;;6.60;;
75459;SDS011;64039;53.060;9.342;2023-06-22T05:48:22;8.18;;;5.38;;
75459;SDS011;64039;53.060;9.342;2023-06-22T05:50:47;6.68;;;5.20;;
75459;SDS011;64039;53.060;9.342;2023-06-22T05:53:13;7.78;;;6.22;;
75459;SDS011;64039;53.060;9.342;2023-06-22T05:55:38;9.57;;;6.05;;
75459;SDS011;64039;53.060;9.342;2023-06-22T05:58:04;6.78;;;5.35;;
75459;SDS011;64039;53.060;9.342;2023-06-22T06:00:30;8.25;;;5.80;;
75459;SDS011;64039;53.060;9.342;2023-06-22T06:02:56;7.53;;;5.07;;
75459;SDS011;64039;53.060;9.342;2023-06-22T06:05:21;6.68;;;4.82;;
75459;SDS011;64039;53.060;9.342;2023-06-22T06:07:48;7.88;;;5.35;;
75459;SDS011;64039;53.060;9.342;2023-06-22T06:10:14;8.27;;;5.63;;
75459;SDS011;64039;53.060;9.342;2023-06-22T06:12:40;6.70;;;4.75;;
75459;SDS011;64039;53.060;9.342;2023-06-22T06:15:05;6.80;;;5.00;;
75459;SDS011;64039;53.060;9.342;2023-06-22T06:17:31;6.75;;;5.00;;
75459;SDS011;64039;53.060;9.342;2023-06-22T06:19:56;5.65;;;4.65;;
75459;SDS011;64039;53.060;9.342;2023-06-22T06:22:23;8.52;;;5.15;;
75459;SDS011;64039;53.060;9.342;2023-06-22T06:24:49;8.43;;;5.10;;
75459;SDS011;64039;53.060;9.342;2023-06-22T06:27:15;6.47;;;4.90;;
75459;SDS011;64039;53.060;9.342;2023-06-22T06:29:43;8.63;;;4.88;;
75459;SDS011;64039;53.060;9.342;2023-06-22T06:32:10;6.63;;;4.90;;
75459;SDS011;64039;53.060;9.342;2023-06-22T06:34:36;6.40;;;4.18;;
75459;SDS011;64039;53.060;9.342;2023-06-22T06:37:01;6.80;;;4.60;;
75459;SDS011;64039;53.060;9.342;2023-06-22T06:39:27;5.95;;;4.22;;
75459;SDS011;64039;53.060;9.342;2023-06-22T06:41:52;5.20;;;4.22;;
75459;SDS011;64039;53.060;9.342;2023-06-22T06:44:18;5.18;;;3.80;;
75459;SDS011;64039;53.060;9.342;2023-06-22T06:46:43;6.15;;;4.53;;
75459;SDS011;64039;53.060;9.342;2023-06-22T06:49:09;9.25;;;4.70;;
75459;SDS011;64039;53.060;9.342;2023-06-22T06:51:34;6.32;;;4.88;;
75459;SDS011;64039;53.060;9.342;2023-06-22T06:54:00;7.80;;;4.55;;
75459;SDS011;64039;53.060;9.342;2023-06-22T06:56:25;7.10;;;3.95;;
75459;SDS011;64039;53.060;9.342;2023-06-22T06:58:51;4.57;;;3.97;;
75459;SDS011;64039;53.060;9.342;2023-06-22T07:01:16;4.78;;;3.47;;
75459;SDS011;64039;53.060;9.342;2023-06-22T07:03:42;6.03;;;3.78;;
75459;SDS011;64039;53.060;9.342;2023-06-22T07:06:08;7.68;;;4.25;;
75459;SDS011;64039;53.060;9.342;2023-06-22T07:08:33;5.47;;;4.13;;
75459;SDS011;64039;53.060;9.342;2023-06-22T07:11:00;6.07;;;4.10;;
75459;SDS011;64039;53.060;9.342;2023-06-22T07:13:26;6.47;;;4.00;;
75459;SDS011;64039;53.060;9.342;2023-06-22T07:15:51;5.40;;;4.40;;
75459;SDS011;64039;53.060;9.342;2023-06-22T07:18:16;5.43;;;3.83;;
75459;SDS011;64039;53.060;9.342;2023-06-22T07:20:42;6.35;;;4.15;;
75459;SDS011;64039;53.060;9.342;2023-06-22T07:23:07;7.60;;;4.20;;
75459;SDS011;64039;53.060;9.342;2023-06-22T07:25:33;9.20;;;6.10;;
75459;SDS011;64039;53.060;9.342;2023-06-22T07:27:59;8.00;;;4.53;;
75459;SDS011;64039;53.060;9.342;2023-06-22T07:30:27;5.68;;;3.60;;
75459;SDS011;64039;53.060;9.342;2023-06-22T07:32:53;5.65;;;3.80;;
75459;SDS011;64039;53.060;9.342;2023-06-22T07:35:19;7.53;;;4.30;;
75459;SDS011;64039;53.060;9.342;2023-06-22T07:37:44;5.35;;;3.80;;
75459;SDS011;64039;53.060;9.342;2023-06-22T07:40:10;4.85;;;3.45;;
75459;SDS011;64039;53.060;9.342;2023-06-22T07:42:36;5.93;;;3.63;;
75459;SDS011;64039;53.060;9.342;2023-06-22T07:45:02;4.32;;;3.20;;
75459;SDS011;64039;53.060;9.342;2023-06-22T07:47:29;5.32;;;3.08;;
75459;SDS011;64039;53.060;9.342;2023-06-22T07:49:57;6.13;;;3.35;;
75459;SDS011;64039;53.060;9.342;2023-06-22T07:52:26;4.18;;;2.70;;
75459;SDS011;64039;53.060;9.342;2023-06-22T07:54:52;4.22;;;2.97;;
75459;SDS011;64039;53.060;9.342;2023-06-22T07:57:17;4.78;;;3.22;;
75459;SDS011;64039;53.060;9.342;2023-06-22T07:59:43;4.05;;;2.67;;
75459;SDS011;64039;53.060;9.342;2023-06-22T08:02:09;3.53;;;2.45;;
75459;SDS011;64039;53.060;9.342;2023-06-22T08:04:35;3.22;;;2.90;;
75459;SDS011;64039;53.060;9.342;2023-06-22T08:07:00;5.13;;;2.35;;
75459;SDS011;64039;53.060;9.342;2023-06-22T08:09:30;4.55;;;2.38;;
75459;SDS011;64039;53.060;9.342;2023-06-22T08:11:56;4.63;;;2.72;;
75459;SDS011;64039;53.060;9.342;2023-06-22T08:14:22;5.40;;;2.92;;
75459;SDS011;64039;53.060;9.342;2023-06-22T08:16:48;3.22;;;2.25;;
75459;SDS011;64039;53.060;9.342;2023-06-22T08:19:14;14.07;;;8.63;;
75459;SDS011;64039;53.060;9.342;2023-06-22T08:21:39;4.97;;;2.95;;
75459;SDS011;64039;53.060;9.342;2023-06-22T08:24:05;3.97;;;2.88;;
75459;SDS011;64039;53.060;9.342;2023-06-22T08:26:32;3.95;;;2.85;;
75459;SDS011;64039;53.060;9.342;2023-06-22T08:29:01;4.13;;;2.70;;
75459;SDS011;64039;53.060;9.342;2023-06-22T08:31:27;3.80;;;2.67;;
75459;SDS011;64039;53.060;9.342;2023-06-22T08:33:52;4.53;;;2.30;;
75459;SDS011;64039;53.060;9.342;2023-06-22T08:36:18;3.83;;;2.35;;
75459;SDS011;64039;53.060;9.342;2023-06-22T08:38:43;7.85;;;3.90;;
75459;SDS011;64039;53.060;9.342;2023-06-22T08:41:10;6.55;;;3.60;;
75459;SDS011;64039;53.060;9.342;2023-06-22T08:43:35;3.40;;;2.55;;
75459;SDS011;64039;53.060;9.342;2023-06-22T08:46:01;4.75;;;3.03;;
75459;SDS011;64039;53.060;9.342;2023-06-22T08:48:27;2.95;;;2.40;;
75459;SDS011;64039;53.060;9.342;2023-06-22T08:50:53;4.72;;;2.95;;
75459;SDS011;64039;53.060;9.342;2023-06-22T08:53:19;3.08;;;2.50;;
75459;SDS011;64039;53.060;9.342;2023-06-22T08:55:44;3.22;;;2.50;;
75459;SDS011;64039;53.060;9.342;2023-06-22T08:58:10;4.07;;;2.50;;
75459;SDS011;64039;53.060;9.342;2023-06-22T09:00:36;5.28;;;3.00;;
75459;SDS011;64039;53.060;9.342;2023-06-22T09:03:02;5.82;;;3.30;;
75459;SDS011;64039;53.060;9.342;2023-06-22T09:05:28;6.45;;;2.97;;
75459;SDS011;64039;53.060;9.342;2023-06-22T09:07:55;4.68;;;2.88;;
75459;SDS011;64039;53.060;9.342;2023-06-22T09:10:21;4.28;;;3.13;;
75459;SDS011;64039;53.060;9.342;2023-06-22T09:12:47;6.40;;;4.32;;
75459;SDS011;64039;53.060;9.342;2023-06-22T09:15:12;6.38;;;3.70;;
75459;SDS011;64039;53.060;9.342;2023-06-22T09:17:38;2.40;;;2.05;;
75459;SDS011;64039;53.060;9.342;2023-06-22T09:20:05;4.10;;;2.53;;
75459;SDS011;64039;53.060;9.342;2023-06-22T09:22:32;4.55;;;2.72;;
75459;SDS011;64039;53.060;9.342;2023-06-22T09:24:58;3.08;;;2.30;;
75459;SDS011;64039;53.060;9.342;2023-06-22T09:27:24;3.30;;;2.38;;
75459;SDS011;64039;53.060;9.342;2023-06-22T09:29:50;5.53;;;2.47;;
75459;SDS011;64039;53.060;9.342;2023-06-22T09:32:15;2.97;;;2.20;;
75459;SDS011;64039;53.060;9.342;2023-06-22T09:34:41;3.70;;;2.50;;
75459;SDS011;64039;53.060;9.342;2023-06-22T09:37:06;3.95;;;2.42;;
75459;SDS011;64039;53.060;9.342;2023-06-22T09:39:32;4.50;;;2.30;;
75459;SDS011;64039;53.060;9.342;2023-06-22T09:41:58;4.15;;;2.53;;
75459;SDS011;64039;53.060;9.342;2023-06-22T09:44:25;4.35;;;2.72;;
75459;SDS011;64039;53.060;9.342;2023-06-22T09:46:50;4.45;;;2.40;;
75459;SDS011;64039;53.060;9.342;2023-06-22T09:49:16;19.23;;;14.02;;
75459;SDS011;64039;53.060;9.342;2023-06-22T09:51:41;4.50;;;3.42;;
75459;SDS011;64039;53.060;9.342;2023-06-22T09:54:06;5.82;;;2.85;;
75459;SDS011;64039;53.060;9.342;2023-06-22T09:56:32;3.70;;;2.75;;
75459;SDS011;64039;53.060;9.342;2023-06-22T09:58:57;4.00;;;3.30;;
75459;SDS011;64039;53.060;9.342;2023-06-22T10:01:23;5.43;;;3.45;;
75459;SDS011;64039;53.060;9.342;2023-06-22T10:03:49;4.30;;;2.67;;
75459;SDS011;64039;53.060;9.342;2023-06-22T10:06:21;4.32;;;2.80;;
75459;SDS011;64039;53.060;9.342;2023-06-22T10:08:47;3.17;;;2.70;;
75459;SDS011;64039;53.060;9.342;2023-06-22T10:11:13;3.38;;;2.65;;
75459;SDS011;64039;53.060;9.342;2023-06-22T10:13:39;4.32;;;2.70;;
75459;SDS011;64039;53.060;9.342;2023-06-22T10:16:04;3.80;;;2.53;;
75459;SDS011;64039;53.060;9.342;2023-06-22T10:18:30;4.38;;;2.97;;
75459;SDS011;64039;53.060;9.342;2023-06-22T10:20:55;3.65;;;2.88;;
75459;SDS011;64039;53.060;9.342;2023-06-22T10:23:21;3.10;;;2.60;;
75459;SDS011;64039;53.060;9.342;2023-06-22T10:25:47;3.92;;;2.80;;
75459;SDS011;64039;53.060;9.342;2023-06-22T10:28:12;3.75;;;3.00;;
75459;SDS011;64039;53.060;9.342;2023-06-22T10:30:41;4.53;;;3.22;;
75459;SDS011;64039;53.060;9.342;2023-06-22T10:33:07;4.45;;;2.70;;
75459;SDS011;64039;53.060;9.342;2023-06-22T10:35:33;2.90;;;2.70;;
75459;SDS011;64039;53.060;9.342;2023-06-22T10:37:59;5.28;;;3.05;;
75459;SDS011;64039;53.060;9.342;2023-06-22T10:40:25;5.28;;;3.45;;
75459;SDS011;64039;53.060;9.342;2023-06-22T10:42:50;3.45;;;3.15;;
75459;SDS011;64039;53.060;9.342;2023-06-22T10:45:15;4.25;;;3.50;;
75459;SDS011;64039;53.060;9.342;2023-06-22T10:47:41;4.70;;;3.30;;
75459;SDS011;64039;53.060;9.342;2023-06-22T10:50:10;4.95;;;3.38;;
75459;SDS011;64039;53.060;9.342;2023-06-22T10:52:36;3.92;;;3.40;;
75459;SDS011;64039;53.060;9.342;2023-06-22T10:55:02;4.22;;;3.40;;
75459;SDS011;64039;53.060;9.342;2023-06-22T10:57:27;4.18;;;3.20;;
75459;SDS011;64039;53.060;9.342;2023-06-22T10:59:53;5.13;;;3.75;;
75459;SDS011;64039;53.060;9.342;2023-06-22T11:02:18;3.70;;;3.15;;
75459;SDS011;64039;53.060;9.342;2023-06-22T11:04:44;5.57;;;3.90;;
75459;SDS011;64039;53.060;9.342;2023-06-22T11:07:09;4.80;;;3.70;;
75459;SDS011;64039;53.060;9.342;2023-06-22T11:09:35;5.82;;;4.20;;
75459;SDS011;64039;53.060;9.342;2023-06-22T11:12:00;4.70;;;4.20;;
75459;SDS011;64039;53.060;9.342;2023-06-22T11:14:26;5.10;;;4.60;;
75459;SDS011;64039;53.060;9.342;2023-06-22T11:16:51;4.43;;;3.90;;
75459;SDS011;64039;53.060;9.342;2023-06-22T11:19:17;5.55;;;4.00;;
75459;SDS011;64039;53.060;9.342;2023-06-22T11:21:43;4.47;;;4.07;;
75459;SDS011;64039;53.060;9.342;2023-06-22T11:24:09;5.97;;;4.00;;
75459;SDS011;64039;53.060;9.342;2023-06-22T11:26:34;4.82;;;4.32;;
75459;SDS011;64039;53.060;9.342;2023-06-22T11:29:01;5.63;;;4.03;;
75459;SDS011;64039;53.060;9.342;2023-06-22T11:31:30;5.07;;;4.32;;
75459;SDS011;64039;53.060;9.342;2023-06-22T11:33:55;5.93;;;4.28;;
75459;SDS011;64039;53.060;9.342;2023-06-22T11:36:21;5.03;;;4.53;;
75459;SDS011;64039;53.060;9.342;2023-06-22T11:38:46;4.85;;;4.35;;
75459;SDS011;64039;53.060;9.342;2023-06-22T11:41:12;5.38;;;4.10;;
75459;SDS011;64039;53.060;9.342;2023-06-22T11:43:37;3.83;;;3.42;;
75459;SDS011;64039;53.060;9.342;2023-06-22T11:46:03;5.60;;;3.63;;
75459;SDS011;64039;53.060;9.342;2023-06-22T11:48:29;8.63;;;4.95;;
75459;SDS011;64039;53.060;9.342;2023-06-22T11:50:55;6.32;;;5.30;;
75459;SDS011;64039;53.060;9.342;2023-06-22T11:53:21;6.55;;;4.78;;
75459;SDS011;64039;53.060;9.342;2023-06-22T11:55:47;5.78;;;4.18;;
75459;SDS011;64039;53.060;9.342;2023-06-22T11:58:14;5.03;;;4.18;;
75459;SDS011;64039;53.060;9.342;2023-06-22T12:00:39;6.40;;;4.15;;
75459;SDS011;64039;53.060;9.342;2023-06-22T12:03:07;5.90;;;4.00;;
75459;SDS011;64039;53.060;9.342;2023-06-22T12:05:33;5.32;;;3.97;;
75459;SDS011;64039;53.060;9.342;2023-06-22T12:07:58;6.25;;;4.35;;
75459;SDS011;64039;53.060;9.342;2023-06-22T12:10:25;4.65;;;4.15;;
75459;SDS011;64039;53.060;9.342;2023-06-22T12:12:50;6.05;;;4.50;;
75459;SDS011;64039;53.060;9.342;2023-06-22T12:15:16;4.90;;;4.40;;
75459;SDS011;64039;53.060;9.342;2023-06-22T12:17:41;6.70;;;4.45;;
75459;SDS011;64039;53.060;9.342;2023-06-22T12:20:07;4.68;;;4.05;;
75459;SDS011;64039;53.060;9.342;2023-06-22T12:22:33;4.80;;;4.30;;
75459;SDS011;64039;53.060;9.342;2023-06-22T12:24:59;5.88;;;4.40;;
75459;SDS011;64039;53.060;9.342;2023-06-22T12:27:25;6.30;;;4.88;;
75459;SDS011;64039;53.060;9.342;2023-06-22T12:29:51;5.05;;;4.53;;
75459;SDS011;64039;53.060;9.342;2023-06-22T12:32:17;4.70;;;4.20;;
75459;SDS011;64039;53.060;9.342;2023-06-22T12:34:42;6.00;;;4.40;;
75459;SDS011;64039;53.060;9.342;2023-06-22T12:37:09;6.60;;;4.50;;
75459;SDS011;64039;53.060;9.342;2023-06-22T12:39:35;6.35;;;4.35;;
75459;SDS011;64039;53.060;9.342;2023-06-22T12:42:00;5.63;;;4.40;;
75459;SDS011;64039;53.060;9.342;2023-06-22T12:44:26;7.78;;;4.57;;
75459;SDS011;64039;53.060;9.342;2023-06-22T12:46:51;5.43;;;4.57;;
75459;SDS011;64039;53.060;9.342;2023-06-22T12:49:17;5.90;;;4.35;;
75459;SDS011;64039;53.060;9.342;2023-06-22T12:51:43;5.18;;;4.65;;
75459;SDS011;64039;53.060;9.342;2023-06-22T12:54:09;5.68;;;4.35;;
75459;SDS011;64039;53.060;9.342;2023-06-22T12:56:35;7.03;;;4.45;;
75459;SDS011;64039;53.060;9.342;2023-06-22T12:59:00;5.25;;;4.47;;
75459;SDS011;64039;53.060;9.342;2023-06-22T13:01:29;6.20;;;4.30;;
75459;SDS011;64039;53.060;9.342;2023-06-22T13:03:58;5.13;;;4.20;;
75459;SDS011;64039;53.060;9.342;2023-06-22T13:06:24;4.70;;;3.90;;
75459;SDS011;64039;53.060;9.342;2023-06-22T13:08:50;4.82;;;4.32;;
75459;SDS011;64039;53.060;9.342;2023-06-22T13:11:15;7.40;;;4.22;;
75459;SDS011;64039;53.060;9.342;2023-06-22T13:13:41;4.28;;;3.88;;
75459;SDS011;64039;53.060;9.342;2023-06-22T13:16:07;9.02;;;4.40;;
75459;SDS011;64039;53.060;9.342;2023-06-22T13:18:32;4.82;;;4.28;;
75459;SDS011;64039;53.060;9.342;2023-06-22T13:21:01;5.43;;;4.35;;
75459;SDS011;64039;53.060;9.342;2023-06-22T13:23:26;5.38;;;4.35;;
75459;SDS011;64039;53.060;9.342;2023-06-22T13:25:52;6.03;;;4.15;;
75459;SDS011;64039;53.060;9.342;2023-06-22T13:28:17;7.35;;;4.15;;
75459;SDS011;64039;53.060;9.342;2023-06-22T13:30:43;5.50;;;4.15;;
75459;SDS011;64039;53.060;9.342;2023-06-22T13:33:12;6.18;;;4.47;;
75459;SDS011;64039;53.060;9.342;2023-06-22T13:35:38;4.72;;;3.88;;
75459;SDS011;64039;53.060;9.342;2023-06-22T13:38:03;7.25;;;4.05;;
75459;SDS011;64039;53.060;9.342;2023-06-22T13:40:29;5.85;;;4.43;;
75459;SDS011;64039;53.060;9.342;2023-06-22T13:42:55;5.22;;;4.55;;
75459;SDS011;64039;53.060;9.342;2023-06-22T13:45:20;6.88;;;4.18;;
75459;SDS011;64039;53.060;9.342;2023-06-22T13:47:46;4.38;;;3.97;;
75459;SDS011;64039;53.060;9.342;2023-06-22T13:50:12;7.43;;;4.40;;
75459;SDS011;64039;53.060;9.342;2023-06-22T13:52:40;5.78;;;4.35;;
75459;SDS011;64039;53.060;9.342;2023-06-22T13:55:05;7.15;;;4.20;;
75459;SDS011;64039;53.060;9.342;2023-06-22T13:57:34;6.40;;;4.50;;
75459;SDS011;64039;53.060;9.342;2023-06-22T14:00:00;5.68;;;4.38;;
75459;SDS011;64039;53.060;9.342;2023-06-22T14:02:26;6.82;;;4.22;;
75459;SDS011;64039;53.060;9.342;2023-06-22T14:04:53;6.13;;;4.20;;
75459;SDS011;64039;53.060;9.342;2023-06-22T14:07:18;5.07;;;4.10;;
75459;SDS011;64039;53.060;9.342;2023-06-22T14:09:47;5.82;;;4.30;;
75459;SDS011;64039;53.060;9.342;2023-06-22T14:12:13;6.00;;;4.28;;
75459;SDS011;64039;53.060;9.342;2023-06-22T14:14:38;5.93;;;4.22;;
75459;SDS011;64039;53.060;9.342;2023-06-22T14:17:04;6.07;;;4.50;;
75459;SDS011;64039;53.060;9.342;2023-06-22T14:19:30;5.30;;;4.20;;
75459;SDS011;64039;53.060;9.342;2023-06-22T14:21:55;5.18;;;4.15;;
75459;SDS011;64039;53.060;9.342;2023-06-22T14:24:22;5.32;;;4.30;;
75459;SDS011;64039;53.060;9.342;2023-06-22T14:26:47;6.35;;;4.60;;
75459;SDS011;64039;53.060;9.342;2023-06-22T14:29:13;5.18;;;4.20;;
75459;SDS011;64039;53.060;9.342;2023-06-22T14:31:38;7.30;;;4.95;;
75459;SDS011;64039;53.060;9.342;2023-06-22T14:34:04;7.57;;;5.20;;
75459;SDS011;64039;53.060;9.342;2023-06-22T14:36:31;5.18;;;4.55;;
75459;SDS011;64039;53.060;9.342;2023-06-22T14:38:56;7.30;;;4.75;;
75459;SDS011;64039;53.060;9.342;2023-06-22T14:41:22;8.38;;;4.95;;
75459;SDS011;64039;53.060;9.342;2023-06-22T14:43:47;5.85;;;5.10;;
75459;SDS011;64039;53.060;9.342;2023-06-22T14:46:15;7.43;;;4.88;;
75459;SDS011;64039;53.060;9.342;2023-06-22T14:48:41;6.05;;;4.90;;
75459;SDS011;64039;53.060;9.342;2023-06-22T14:51:07;6.47;;;4.75;;
75459;SDS011;64039;53.060;9.342;2023-06-22T14:53:34;6.65;;;5.40;;
75459;SDS011;64039;53.060;9.342;2023-06-22T14:56:00;8.57;;;6.00;;